NCAR-RAP Real-Time Weather Data

Output produced by METARs form (14 October 2019  23:54 UTC)
found at http://weather.rap.ucar.edu/surface/
 
KPIT 142351Z 26004KT 10SM CLR 12/03 A3006 RMK AO2 SLP189 T01220033 10167 20122 53017
KPIT 142251Z 27005KT 10SM FEW055 13/03 A3004 RMK AO2 SLP181 T01330028
KPIT 142151Z 26006KT 10SM FEW055 16/02 A3003 RMK AO2 SLP175 T01560022
KPIT 142051Z 23009KT 10SM FEW055 16/02 A3001 RMK AO2 SLP169 T01610022 53000
KPIT 141951Z 29014G17KT 10SM FEW055 16/03 A3001 RMK AO2 SLP169 T01560028
KPIT 141851Z 28012KT 10SM FEW055 16/03 A3000 RMK AO2 SLP166 T01560028
KPIT 141751Z 26009KT 10SM SCT050 16/03 A3001 RMK AO2 SLP169 T01560033 10161 20089 58009
KPIT 141651Z 28008G17KT 230V310 10SM SCT045 15/03 A3003 RMK AO2 SLP176 T01500033
KPIT 141551Z VRB03KT 10SM FEW030 13/05 A3004 RMK AO2 SLP181 T01280050
KPIT 141451Z 28008KT 10SM FEW028 12/05 A3004 RMK AO2 SLP179 T01220050 51019
KPIT 141351Z 26006KT 10SM CLR 11/04 A3002 RMK AO2 SLP175 T01060039
KPIT 141251Z 24005KT 10SM CLR 09/03 A3000 RMK AO2 SLP168 T00940033
KPIT 141151Z 22006KT 10SM CLR 09/03 A2998 RMK AO2 SLP160 T00890028 10111 20089 51012
KPIT 141051Z 22007KT 10SM FEW250 09/03 A2997 RMK AO2 SLP156 T00940028
KPIT 140951Z 23006KT 10SM FEW250 10/03 A2995 RMK AO2 SLP148 T01000028
KPIT 140851Z 23007KT 10SM FEW250 10/03 A2994 RMK AO2 SLP145 T01000028 53001
KPIT 140751Z 21008KT 10SM FEW250 11/03 A2993 RMK AO2 SLP141 T01060028
KPIT 140651Z 22007KT 10SM FEW250 11/02 A2994 RMK AO2 SLP144 T01110022
KPIT 140551Z 21007KT 10SM FEW250 11/02 A2994 RMK AO2 SLP144 T01110017 10128 20094 53000
KPIT 140451Z 21006KT 10SM FEW250 11/01 A2993 RMK AO2 SLP143 T01060011 401830011
KPIT 140351Z 20004KT 10SM FEW250 10/01 A2994 RMK AO2 SLP146 T01000011
KPIT 140251Z 22004KT 10SM FEW250 11/01 A2994 RMK AO2 SLP146 T01110006 51007
KPIT 140151Z 21003KT 10SM CLR 12/01 A2993 RMK AO2 SLP144 T01170011
KPIT 140051Z 18004KT 10SM CLR 12/01 A2992 RMK AO2 SLP144 T01220006
KPIT 132351Z 17005KT 10SM CLR 13/00 A2991 RMK AO2 SLP142 T01280000 10183 20128 50000
KPIT 132251Z 18007KT 10SM FEW180 15/00 A2992 RMK AO2 SLP142 T01500000
KPIT 132151Z 18007KT 10SM FEW180 17/M01 A2992 RMK AO2 SLP141 T01721011
KPIT 132051Z 18007KT 10SM FEW180 FEW250 18/01 A2991 RMK AO2 SLP139 T01830006 56017
KPIT 131951Z 15005KT 10SM FEW180 SCT250 17/03 A2993 RMK AO2 SLP144 T01720033
KPIT 131851Z 17007KT 10SM SCT250 16/02 A2994 RMK AO2 SLP150 T01610017
KPIT 131751Z 18008KT 10SM SCT250 16/M01 A2997 RMK AO2 SLP157 T01561011 10156 20011 58030
KPIT 131651Z 18007KT 10SM BKN250 13/02 A3001 RMK AO2 SLP172 T01330017
KPIT 131551Z 21005KT 10SM BKN250 12/03 A3004 RMK AO2 SLP184 T01170028
KPIT 131451Z 20004KT 10SM SCT250 10/04 A3006 RMK AO2 SLP191 T01000044 58000
KPIT 131351Z 19005KT 10SM FEW250 07/04 A3007 RMK AO2 SLP193 T00720044
KPIT 131251Z 16003KT 10SM FEW250 04/03 A3007 RMK AO2 SLP196 T00390028
KPIT 131151Z 18003KT 10SM FEW250 02/01 A3006 RMK AO2 SLP194 70003 T00170011 10044 20011 50005
KPIT 131051Z 00000KT 10SM FEW250 02/01 A3006 RMK AO2 SLP193 T00220011
KPIT 130951Z 00000KT 10SM FEW250 03/02 A3005 RMK AO2 SLP189 T00280017
KPIT 130851Z 15003KT 10SM FEW230 04/02 A3004 RMK AO2 SLP185 T00390022 56012
KPIT 130751Z 16004KT 10SM FEW250 03/02 A3005 RMK AO2 SLP188 T00330017
KPIT 130651Z 16005KT 10SM CLR 03/01 A3007 RMK AO2 SLP194 T00280011
KPIT 130551Z 15003KT 10SM CLR 04/01 A3008 RMK AO2 SLP198 T00440011 10089 20039 55005
KPIT 130451Z 18004KT 10SM CLR 04/01 A3008 RMK AO2 SLP198 T00390011 401720039
KPIT 130351Z 16003KT 10SM CLR 04/01 A3008 RMK AO2 SLP200 T00390011
KPIT 130251Z 16003KT 10SM CLR 05/01 A3009 RMK AO2 SLP203 T00500011 51005
KPIT 130151Z 00000KT 10SM CLR 07/01 A3009 RMK AO2 SLP202 T00670011
KPIT 130051Z 25004KT 10SM CLR 08/01 A3009 RMK AO2 SLP199 T00780006